Owen Roberts, Cayman Islands

6:21 PM EST on February 09, 2016 (GMT -0500)
Crewe Road, G.T. | | Change Station
CLOSE
Current Station
Personal Weather Station
Location: George Town, Grand Cayman
Elevation: 10 ft
Nearby Weather Stations

Elev 10 ft 19.29 °N, 81.36 °W | Updated 3 seconds ago

Partly Cloudy
Partly Cloudy
76.3 °F
Feels Like 78 °F
N
5.0
Wind Variable Wind from NW
Gusts 11.0 mph

Today
High -- | Low -- °F
--% Chance of Precip.
Yesterday
High -- | Low -- °F
Precip. -- in
Pressure 30.09 in
Visibility 6.2 miles
Clouds Few 2000 ft
Heat Index 78 °F
Dew Point 62 °F
Humidity 61%
Rainfall 0.00 in
Snow Depth Not available.
6:57 AM 6:22 PM
New Moon, 2% visible
METAR MWCR 092300Z 34007KT 300V040 9999 FEW020 25/17 Q1019 NOSIG
Pressure 30.09 in
Visibility 6.2 miles
Clouds Few 2000 ft
Heat Index 78 °F
Dew Point 62 °F
Humidity 61%
Rainfall 0.00 in
Snow Depth Not available.
6:57 AM 6:22 PM
New Moon, 2% visible
METAR MWCR 092300Z 34007KT 300V040 9999 FEW020 25/17 Q1019 NOSIG

10-Day Weather Forecast

No radar image for this location.
×

Almanac

Astronomy

Feb. 09, 2016 Rise Set
Actual Time
Civil Twilight
Nautical Twilight
Astronomical Twilight
Moon
Length of Visible Light
Length of Day
Tomorrow will be .
, % of the Moon is Illuminated

Today's Extremes

Country Highs Country Lows

Community

WunderPhotos

Upload Photos

1,891,744 photos uploaded!

WunderBlog® & News

Nearby

Air Quality

  Air Quality AQ Index Pollutant
Not available.

Snow Depth

Station Depth Elevation

Earthquake Activity

City Distance Mag. Time & Date
Minimum magnitude displayed is 2.5.

Coastal Water Temperatures

Place Temperature

Stations

Nearby Weather Stations

Station Location Temp. Windchill Dew Point Humidity Wind Precip. Elev Updated Type